Time;durP1;ratioP1;P1;durP2;ratioP2;P2;SDS_P1;SDS_P2;PMS_P1;PMS_P2;Temp;Humidity;BMP_temperature;BMP_pressure;BME280_temperature;BME280_humidity;BME280_pressure;Samples;Min_cycle;Max_cycle;Signal;HPM_P1;HPM_P2
2021/08/26 00:00:29;;;;;;;10.57;3.27;;;15.30;99.90;;;;;;5074930;28;20461;-72
2021/08/26 00:05:47;;;;;;;13.80;3.37;;;15.30;99.90;;;;;;5074913;28;20433;-72
2021/08/26 00:08:16;;;;;;;4.00;3.23;;;15.30;99.90;;;;;;5074791;28;20450;-72
2021/08/26 00:10:44;;;;;;;3.90;3.00;;;15.30;99.90;;;;;;5075085;28;20466;-72
2021/08/26 00:13:11;;;;;;;3.57;3.00;;;15.30;99.90;;;;;;5074650;28;20471;-72
2021/08/26 00:15:43;;;;;;;3.23;2.93;;;15.30;99.90;;;;;;5074733;28;20938;-72
2021/08/26 00:18:10;;;;;;;7.67;3.10;;;15.30;99.90;;;;;;5074800;28;20507;-72
2021/08/26 00:20:37;;;;;;;8.30;3.67;;;15.30;99.90;;;;;;5074787;28;20454;-72
2021/08/26 00:23:06;;;;;;;4.77;3.50;;;15.30;99.90;;;;;;5074435;28;20458;-72
2021/08/26 00:25:32;;;;;;;7.97;3.67;;;15.30;99.90;;;;;;5074718;28;20454;-71
2021/08/26 00:27:59;;;;;;;6.33;3.80;;;15.20;99.90;;;;;;5074644;28;20477;-72
2021/08/26 00:30:26;;;;;;;6.90;4.13;;;15.20;99.90;;;;;;5074318;28;20462;-72
2021/08/26 00:32:53;;;;;;;8.17;3.83;;;15.20;99.90;;;;;;5074453;28;20469;-72
2021/08/26 00:35:20;;;;;;;4.53;3.53;;;15.20;99.90;;;;;;5074305;28;20482;-71
2021/08/26 00:37:46;;;;;;;7.27;3.93;;;15.20;99.90;;;;;;5074547;28;20527;-71
2021/08/26 00:40:15;;;;;;;6.53;3.93;;;15.30;99.90;;;;;;5074225;28;20446;-71
2021/08/26 00:42:42;;;;;;;10.73;3.73;;;15.30;99.90;;;;;;5074082;28;20482;-71
2021/08/26 00:45:10;;;;;;;9.33;4.00;;;15.30;99.90;;;;;;5074043;28;20795;-72
2021/08/26 00:47:37;;;;;;;8.00;3.57;;;15.20;99.90;;;;;;5073898;28;20756;-71
2021/08/26 00:50:05;;;;;;;6.73;4.43;;;15.20;99.90;;;;;;5073871;28;20458;-73
2021/08/26 00:52:31;;;;;;;4.80;3.60;;;15.20;99.90;;;;;;5074336;28;20455;-72
2021/08/26 00:54:58;;;;;;;7.07;4.50;;;15.20;99.90;;;;;;5074243;28;20505;-72
2021/08/26 00:57:27;;;;;;;4.97;3.90;;;15.20;99.90;;;;;;5074486;28;20458;-72
2021/08/26 00:59:54;;;;;;;7.70;3.90;;;15.20;99.90;;;;;;5074118;28;20532;-72
2021/08/26 01:02:30;;;;;;;7.37;4.13;;;15.10;99.90;;;;;;5074457;28;20482;-72
2021/08/26 01:05:07;;;;;;;9.37;4.23;;;15.10;99.90;;;;;;5074523;28;20434;-72
2021/08/26 01:07:40;;;;;;;10.43;4.33;;;15.10;99.90;;;;;;5074346;28;20439;-72
2021/08/26 01:10:09;;;;;;;10.87;5.27;;;15.10;99.90;;;;;;5076220;28;20438;-72
2021/08/26 01:12:40;;;;;;;4.93;3.67;;;15.10;99.90;;;;;;5075985;28;20457;-72
2021/08/26 01:15:08;;;;;;;9.87;4.40;;;15.10;99.90;;;;;;5074621;28;20473;-72
2021/08/26 01:17:34;;;;;;;8.43;4.90;;;15.10;99.90;;;;;;5073724;28;20922;-73
2021/08/26 01:20:04;;;;;;;8.23;4.17;;;15.10;99.90;;;;;;5074352;28;20804;-73
2021/08/26 01:22:32;;;;;;;6.80;4.23;;;15.10;99.90;;;;;;5074254;28;20890;-73
2021/08/26 01:25:00;;;;;;;10.67;4.13;;;15.10;99.90;;;;;;5074826;28;20450;-72
2021/08/26 01:27:29;;;;;;;11.23;4.30;;;15.20;99.90;;;;;;5073791;28;20545;-72
2021/08/26 01:29:56;;;;;;;12.77;4.53;;;15.10;99.90;;;;;;5073873;28;20817;-73
2021/08/26 01:32:24;;;;;;;8.97;3.90;;;15.10;99.90;;;;;;5074341;28;20837;-73
2021/08/26 01:34:51;;;;;;;8.07;3.63;;;15.20;99.90;;;;;;5074628;28;20969;-73
2021/08/26 01:37:19;;;;;;;6.93;3.47;;;15.20;99.90;;;;;;5074209;28;20458;-73
2021/08/26 01:39:46;;;;;;;10.70;3.90;;;15.20;99.90;;;;;;5074263;28;20466;-73
2021/08/26 01:42:13;;;;;;;13.37;3.80;;;15.10;99.90;;;;;;5073926;28;20959;-73
2021/08/26 01:44:41;;;;;;;8.43;4.30;;;15.10;99.90;;;;;;5074365;28;20443;-73
2021/08/26 01:47:10;;;;;;;8.43;3.67;;;15.10;99.90;;;;;;5074673;28;20815;-73
2021/08/26 01:49:37;;;;;;;9.93;4.23;;;15.10;99.90;;;;;;5075294;28;20464;-73
2021/08/26 01:52:06;;;;;;;14.27;4.47;;;15.10;99.90;;;;;;5074943;28;20518;-73
2021/08/26 01:54:33;;;;;;;11.03;4.40;;;15.10;99.90;;;;;;5075321;28;20514;-73
2021/08/26 01:57:00;;;;;;;6.23;3.70;;;15.10;99.90;;;;;;5076936;28;20453;-73
2021/08/26 01:59:27;;;;;;;6.87;3.80;;;15.10;99.90;;;;;;5078518;28;20462;-73
2021/08/26 02:01:56;;;;;;;8.83;5.20;;;15.10;99.90;;;;;;5080171;28;20458;-73
2021/08/26 02:04:22;;;;;;;5.30;3.60;;;15.00;99.90;;;;;;5079155;28;20450;-72
2021/08/26 02:06:49;;;;;;;8.27;4.60;;;15.00;99.90;;;;;;5077507;28;20450;-72
2021/08/26 02:09:16;;;;;;;10.07;4.30;;;15.00;99.90;;;;;;5077749;28;20453;-72
2021/08/26 02:11:42;;;;;;;10.30;4.80;;;15.00;99.90;;;;;;5077980;28;20465;-72
2021/08/26 02:14:09;;;;;;;8.10;4.47;;;15.00;99.90;;;;;;5077959;28;20543;-72
2021/08/26 02:16:36;;;;;;;9.50;4.20;;;15.00;99.90;;;;;;5077866;28;20466;-72
2021/08/26 02:19:04;;;;;;;10.40;4.60;;;14.90;99.90;;;;;;5077401;28;20458;-72
2021/08/26 02:21:32;;;;;;;9.53;4.63;;;14.90;99.90;;;;;;5077480;28;20827;-72
2021/08/26 02:23:59;;;;;;;11.10;5.07;;;14.90;99.90;;;;;;5077944;28;20493;-72
2021/08/26 02:26:25;;;;;;;7.33;5.20;;;14.90;99.90;;;;;;5077799;28;20541;-72
2021/08/26 02:28:52;;;;;;;9.50;4.73;;;14.90;99.90;;;;;;5077934;28;20465;-72
2021/08/26 02:31:19;;;;;;;10.90;4.97;;;14.90;99.90;;;;;;5077640;28;20786;-72
2021/08/26 02:33:46;;;;;;;9.33;4.70;;;14.90;99.90;;;;;;5077655;28;20457;-72
2021/08/26 02:36:14;;;;;;;11.70;4.50;;;14.90;99.90;;;;;;5077427;28;20482;-72
2021/08/26 02:38:41;;;;;;;11.23;4.73;;;14.90;99.90;;;;;;5077425;28;20767;-72
2021/08/26 02:41:07;;;;;;;10.43;4.43;;;14.90;99.90;;;;;;5082245;28;20465;-72
2021/08/26 02:43:34;;;;;;;12.13;4.80;;;14.90;99.90;;;;;;5086144;28;20474;-73
2021/08/26 02:46:01;;;;;;;11.50;5.00;;;14.90;99.90;;;;;;5084272;28;20449;-72
2021/08/26 02:48:28;;;;;;;12.27;5.27;;;14.90;99.90;;;;;;5083065;28;20891;-72
2021/08/26 02:50:55;;;;;;;8.63;4.70;;;14.90;99.90;;;;;;5081923;28;20454;-73
2021/08/26 02:53:23;;;;;;;10.00;4.90;;;14.90;99.90;;;;;;5079236;28;20465;-73
2021/08/26 02:55:50;;;;;;;14.10;4.80;;;14.90;99.90;;;;;;5078082;28;20474;-73
2021/08/26 02:58:16;;;;;;;12.50;5.40;;;14.90;99.90;;;;;;5077954;28;20458;-72
2021/08/26 03:00:43;;;;;;;10.87;5.30;;;14.80;99.90;;;;;;5077106;28;20455;-71
2021/08/26 03:03:10;;;;;;;10.20;4.90;;;14.80;99.90;;;;;;5079385;28;20477;-74
2021/08/26 03:05:37;;;;;;;10.87;4.87;;;14.80;99.90;;;;;;5080743;28;20519;-73
2021/08/26 03:08:04;;;;;;;13.33;6.10;;;14.80;99.90;;;;;;5080778;28;20470;-73
2021/08/26 03:10:32;;;;;;;15.83;4.77;;;14.80;99.90;;;;;;5082925;28;20519;-73
2021/08/26 03:12:59;;;;;;;8.77;5.20;;;14.80;99.90;;;;;;5084118;28;20450;-74
2021/08/26 03:15:25;;;;;;;11.63;5.67;;;14.80;99.90;;;;;;5083950;28;20482;-73
2021/08/26 03:17:52;;;;;;;12.70;5.57;;;14.80;99.90;;;;;;5083754;28;20458;-73
2021/08/26 03:20:20;;;;;;;10.50;5.27;;;14.80;99.90;;;;;;5082928;28;20461;-73
2021/08/26 03:22:47;;;;;;;10.13;4.97;;;14.80;99.90;;;;;;5084119;28;20450;-73
2021/08/26 03:25:15;;;;;;;11.80;5.20;;;14.80;99.90;;;;;;5079986;28;20454;-72
2021/08/26 03:27:43;;;;;;;13.57;5.63;;;14.70;99.90;;;;;;5083583;28;20458;-73
2021/08/26 03:30:10;;;;;;;12.63;5.23;;;14.70;99.90;;;;;;5083715;28;20462;-73
2021/08/26 03:32:40;;;;;;;12.23;4.23;;;14.70;99.90;;;;;;5080439;28;20458;-73
2021/08/26 03:35:08;;;;;;;10.40;5.70;;;14.70;99.90;;;;;;5082031;28;20482;-73
2021/08/26 03:37:34;;;;;;;13.80;5.60;;;14.70;99.90;;;;;;5081205;28;20488;-73
2021/08/26 03:40:01;;;;;;;13.93;6.00;;;14.70;99.90;;;;;;5084050;28;20471;-73
2021/08/26 03:42:28;;;;;;;17.37;5.90;;;14.70;99.90;;;;;;5081484;28;20535;-72
2021/08/26 03:44:56;;;;;;;14.60;5.83;;;14.70;99.90;;;;;;5083443;28;20451;-73
2021/08/26 03:47:22;;;;;;;14.87;5.57;;;14.70;99.90;;;;;;5084899;28;20455;-73
2021/08/26 03:49:49;;;;;;;22.50;6.37;;;14.70;99.90;;;;;;5084498;28;20454;-72
2021/08/26 03:52:16;;;;;;;17.50;7.17;;;14.70;99.90;;;;;;5080606;28;20454;-72
2021/08/26 03:54:43;;;;;;;12.97;6.20;;;14.70;99.90;;;;;;5081982;28;20469;-73
2021/08/26 03:57:09;;;;;;;22.33;6.17;;;14.70;99.90;;;;;;5079747;28;20454;-73
2021/08/26 03:59:36;;;;;;;17.47;7.00;;;14.70;99.90;;;;;;5078544;28;20458;-72
2021/08/26 04:02:04;;;;;;;20.33;7.23;;;14.70;99.90;;;;;;5077748;28;20469;-73
2021/08/26 04:04:31;;;;;;;14.23;5.87;;;14.70;99.90;;;;;;5083473;28;20477;-73
2021/08/26 04:06:58;;;;;;;13.10;6.40;;;14.70;99.90;;;;;;5084313;28;20463;-73
2021/08/26 04:09:25;;;;;;;18.23;6.43;;;14.70;99.90;;;;;;5079331;28;20465;-73
2021/08/26 04:11:51;;;;;;;16.20;6.17;;;14.80;99.90;;;;;;5081969;28;20465;-73
2021/08/26 04:14:18;;;;;;;15.70;6.70;;;14.70;99.90;;;;;;5077763;28;20461;-73
2021/08/26 04:16:45;;;;;;;15.73;5.77;;;14.70;99.90;;;;;;5080845;28;20824;-73
2021/08/26 04:19:13;;;;;;;14.60;6.10;;;14.60;99.90;;;;;;5082905;28;20462;-73
2021/08/26 04:21:40;;;;;;;15.73;5.83;;;14.60;99.90;;;;;;5080919;28;20458;-73
2021/08/26 04:24:06;;;;;;;18.33;7.13;;;14.60;99.90;;;;;;5082728;28;20458;-73
2021/08/26 04:26:33;;;;;;;14.27;6.20;;;14.60;99.90;;;;;;5078940;28;20465;-73
2021/08/26 04:29:03;;;;;;;17.10;6.80;;;14.60;99.90;;;;;;5076546;28;20462;-72
2021/08/26 04:31:30;;;;;;;18.00;7.53;;;14.60;99.90;;;;;;5075388;28;20481;-72
2021/08/26 04:33:57;;;;;;;19.80;7.13;;;14.60;99.90;;;;;;5080802;28;20462;-72
2021/08/26 04:36:25;;;;;;;14.73;6.10;;;14.60;99.90;;;;;;5081312;28;20573;-73
2021/08/26 04:38:52;;;;;;;15.10;7.33;;;14.60;99.90;;;;;;5082103;28;20492;-73
2021/08/26 04:41:32;;;;;;;26.20;6.53;;;14.60;99.90;;;;;;5081896;28;20841;-73
2021/08/26 04:43:59;;;;;;;20.63;6.67;;;14.60;99.90;;;;;;5074185;28;20500;-73
2021/08/26 04:46:27;;;;;;;21.37;8.27;;;14.60;99.90;;;;;;5074098;28;20775;-73
2021/08/26 04:48:54;;;;;;;16.63;7.20;;;14.60;99.90;;;;;;5074796;28;20561;-73
2021/08/26 04:51:20;;;;;;;25.40;6.90;;;14.60;99.90;;;;;;5073960;28;20463;-73
2021/08/26 04:53:48;;;;;;;27.67;8.03;;;14.60;99.90;;;;;;5074539;28;20466;-73
2021/08/26 04:56:15;;;;;;;25.03;6.90;;;14.60;99.90;;;;;;5074488;28;20557;-73
2021/08/26 04:58:42;;;;;;;26.43;6.03;;;14.60;99.90;;;;;;5074717;28;20458;-73
2021/08/26 05:01:08;;;;;;;18.93;6.80;;;14.60;99.90;;;;;;5074518;28;20507;-73
2021/08/26 05:03:35;;;;;;;19.73;6.90;;;14.60;99.90;;;;;;5074504;28;20740;-73
2021/08/26 05:06:03;;;;;;;23.70;7.20;;;14.60;99.90;;;;;;5074120;28;20451;-73
2021/08/26 05:08:30;;;;;;;12.20;6.40;;;14.60;99.90;;;;;;5073858;28;20469;-72
2021/08/26 05:11:00;;;;;;;25.87;7.20;;;14.70;99.90;;;;;;5073967;28;20790;-72
2021/08/26 05:13:26;;;;;;;19.17;6.77;;;14.70;99.90;;;;;;5073840;28;20468;-73
2021/08/26 05:15:53;;;;;;;15.93;7.63;;;14.70;99.90;;;;;;5073867;28;20992;-74
2021/08/26 05:18:20;;;;;;;15.00;6.77;;;14.80;99.90;;;;;;5074311;28;20462;-72
2021/08/26 05:20:46;;;;;;;20.73;6.90;;;14.80;99.90;;;;;;5074145;28;20536;-72
2021/08/26 05:23:13;;;;;;;17.37;6.20;;;14.80;99.90;;;;;;5074169;28;20469;-72
2021/08/26 05:25:40;;;;;;;22.03;7.00;;;14.80;99.90;;;;;;5074533;28;20469;-72
2021/08/26 05:28:08;;;;;;;15.97;6.83;;;14.80;99.90;;;;;;5081788;28;20456;-74
2021/08/26 05:30:38;;;;;;;13.17;6.00;;;14.80;99.90;;;;;;5081633;28;20518;-73
2021/08/26 05:33:05;;;;;;;21.80;6.57;;;14.90;99.90;;;;;;5085894;28;20438;-73
2021/08/26 05:35:32;;;;;;;15.90;7.63;;;14.90;99.90;;;;;;5085706;28;20478;-73
2021/08/26 05:37:58;;;;;;;16.27;7.20;;;14.90;99.90;;;;;;5084766;28;20455;-73
2021/08/26 05:40:25;;;;;;;17.13;6.67;;;15.00;99.90;;;;;;5086951;28;20469;-73
2021/08/26 05:42:52;;;;;;;17.60;6.47;;;15.00;99.90;;;;;;5085076;28;20488;-73
2021/08/26 05:45:20;;;;;;;18.80;7.50;;;15.00;99.90;;;;;;5085846;28;20453;-74
2021/08/26 05:47:55;;;;;;;19.03;7.50;;;15.00;99.90;;;;;;5087311;28;20458;-74
2021/08/26 05:50:22;;;;;;;16.97;7.40;;;15.10;99.90;;;;;;5087865;28;20442;-75
2021/08/26 05:52:50;;;;;;;17.40;6.90;;;15.00;99.90;;;;;;5085729;28;20458;-74
2021/08/26 05:55:17;;;;;;;22.73;7.73;;;15.00;99.90;;;;;;5086042;28;20468;-73
2021/08/26 05:57:44;;;;;;;15.90;6.97;;;15.00;99.90;;;;;;5086328;28;20484;-73
2021/08/26 06:00:12;;;;;;;19.80;7.30;;;15.00;99.90;;;;;;5086107;28;20461;-74
2021/08/26 06:02:40;;;;;;;17.93;8.33;;;15.00;99.90;;;;;;5082414;28;20450;-74
2021/08/26 06:05:07;;;;;;;15.67;7.70;;;15.10;99.90;;;;;;5083664;28;20461;-74
2021/08/26 06:07:34;;;;;;;14.53;8.57;;;15.00;99.90;;;;;;5084984;28;20450;-73
2021/08/26 06:10:01;;;;;;;27.77;8.37;;;15.00;99.90;;;;;;5086670;28;20450;-73
2021/08/26 06:12:27;;;;;;;19.37;7.30;;;15.00;99.90;;;;;;5083856;28;20492;-74
2021/08/26 06:14:54;;;;;;;25.50;7.23;;;15.10;99.90;;;;;;5082680;28;20454;-74
2021/08/26 06:17:21;;;;;;;18.30;9.10;;;15.10;99.90;;;;;;5082678;28;20542;-74
2021/08/26 06:19:50;;;;;;;21.77;6.40;;;15.20;99.90;;;;;;5082992;28;20454;-73
2021/08/26 06:22:16;;;;;;;22.50;8.40;;;15.20;99.90;;;;;;5082474;28;20540;-74
2021/08/26 06:24:43;;;;;;;27.10;7.73;;;15.30;99.90;;;;;;5082910;28;20450;-73
2021/08/26 06:27:10;;;;;;;21.47;8.37;;;15.30;99.90;;;;;;5083359;28;20450;-74
2021/08/26 06:29:37;;;;;;;20.50;7.70;;;15.40;99.90;;;;;;5082582;28;20458;-73
2021/08/26 06:32:04;;;;;;;22.67;7.40;;;15.40;99.90;;;;;;5079889;28;20458;-73
2021/08/26 06:34:33;;;;;;;19.80;7.57;;;15.40;99.90;;;;;;5084042;28;20462;-73
2021/08/26 06:37:01;;;;;;;18.17;8.07;;;15.50;99.90;;;;;;5080892;28;20477;-73
2021/08/26 06:39:28;;;;;;;23.57;8.33;;;15.60;99.90;;;;;;5083024;28;20478;-73
2021/08/26 06:41:55;;;;;;;20.70;6.40;;;15.70;99.90;;;;;;5081813;28;20462;-73
2021/08/26 06:44:22;;;;;;;14.03;6.87;;;15.80;99.90;;;;;;5080717;28;20434;-73
2021/08/26 06:46:48;;;;;;;13.50;6.50;;;15.90;99.90;;;;;;5082672;28;20464;-73
2021/08/26 06:49:15;;;;;;;13.80;6.40;;;16.00;99.90;;;;;;5082565;28;20465;-73
2021/08/26 06:51:42;;;;;;;13.53;5.60;;;16.10;99.90;;;;;;5081538;28;20461;-73
2021/08/26 06:54:10;;;;;;;13.90;5.47;;;16.10;99.90;;;;;;5081090;28;20454;-73
2021/08/26 06:56:38;;;;;;;21.30;6.77;;;16.20;99.90;;;;;;5081766;28;20505;-74
2021/08/26 06:59:05;;;;;;;14.77;5.80;;;16.10;99.90;;;;;;5081613;28;20518;-73
2021/08/26 07:01:31;;;;;;;17.83;5.17;;;16.10;99.90;;;;;;5080238;28;20477;-72
2021/08/26 07:03:58;;;;;;;15.30;5.03;;;16.10;99.90;;;;;;5078726;28;20462;-73
2021/08/26 07:06:26;;;;;;;17.70;4.73;;;16.20;99.90;;;;;;5079149;28;20461;-73
2021/08/26 07:08:53;;;;;;;12.17;4.97;;;16.30;99.90;;;;;;5079591;28;20458;-73
2021/08/26 07:11:21;;;;;;;15.07;5.60;;;16.40;99.90;;;;;;5076479;28;20914;-73
2021/08/26 07:13:48;;;;;;;11.27;6.17;;;16.40;99.90;;;;;;5078161;28;20469;-73
2021/08/26 07:16:15;;;;;;;12.27;4.80;;;16.40;99.90;;;;;;5077996;28;20478;-73
2021/08/26 07:18:41;;;;;;;11.30;4.40;;;16.40;99.90;;;;;;5076831;28;20466;-73
2021/08/26 07:21:08;;;;;;;9.70;4.23;;;16.40;99.90;;;;;;5076688;28;20458;-73
2021/08/26 07:23:35;;;;;;;10.90;4.30;;;16.40;99.90;;;;;;5077369;28;20561;-73
2021/08/26 07:26:02;;;;;;;9.27;4.20;;;16.40;99.90;;;;;;5076396;28;20454;-73
2021/08/26 07:28:30;;;;;;;8.53;3.77;;;16.40;99.90;;;;;;5077873;28;20450;-73
2021/08/26 07:30:56;;;;;;;7.53;3.77;;;16.40;99.90;;;;;;5079144;28;20827;-73
2021/08/26 07:33:25;;;;;;;12.87;3.93;;;16.50;99.90;;;;;;5079556;28;20565;-73
2021/08/26 07:35:54;;;;;;;10.37;4.37;;;16.50;99.90;;;;;;5078800;28;20454;-73
2021/08/26 07:38:20;;;;;;;9.17;3.73;;;16.60;99.90;;;;;;5077446;28;20500;-72
2021/08/26 07:40:47;;;;;;;7.30;4.00;;;16.60;99.90;;;;;;5078667;28;20450;-73
2021/08/26 07:43:14;;;;;;;8.83;3.63;;;16.60;99.90;;;;;;5078175;28;20486;-73
2021/08/26 07:45:42;;;;;;;8.60;3.33;;;16.60;99.90;;;;;;5078188;28;20481;-73
2021/08/26 07:48:09;;;;;;;6.30;2.80;;;16.60;99.90;;;;;;5078993;28;20831;-73
2021/08/26 07:50:36;;;;;;;9.90;3.10;;;16.70;99.90;;;;;;5077119;28;20462;-73
2021/08/26 07:53:03;;;;;;;9.73;2.87;;;16.80;99.90;;;;;;5078744;28;20454;-73
2021/08/26 07:55:29;;;;;;;6.10;2.50;;;16.90;99.90;;;;;;5077082;28;20454;-73
2021/08/26 07:57:56;;;;;;;7.90;3.17;;;17.00;99.90;;;;;;5078513;28;20474;-72
2021/08/26 08:00:23;;;;;;;5.90;2.93;;;17.20;99.90;;;;;;5078382;28;20454;-72
2021/08/26 08:02:51;;;;;;;3.67;2.23;;;17.40;99.90;;;;;;5078251;28;20533;-73
2021/08/26 08:05:20;;;;;;;9.60;1.90;;;17.60;99.90;;;;;;5077598;28;20779;-73
2021/08/26 08:07:47;;;;;;;7.00;3.03;;;17.70;99.90;;;;;;5078562;28;20515;-73
2021/08/26 08:10:14;;;;;;;6.73;2.70;;;17.90;99.90;;;;;;5079096;28;20971;-73
2021/08/26 08:12:41;;;;;;;5.83;2.83;;;17.90;99.90;;;;;;5078419;28;20455;-73
2021/08/26 08:15:09;;;;;;;9.90;2.40;;;17.90;99.90;;;;;;5078384;28;20450;-73
2021/08/26 08:17:37;;;;;;;6.07;1.90;;;17.80;99.90;;;;;;5075384;28;20478;-73
2021/08/26 08:20:07;;;;;;;4.27;2.23;;;17.70;99.90;;;;;;5076569;28;20526;-73
2021/08/26 08:22:34;;;;;;;6.37;2.30;;;17.60;99.90;;;;;;5077214;28;20449;-72
2021/08/26 08:25:01;;;;;;;7.80;2.67;;;17.60;99.90;;;;;;5077532;28;20465;-73
2021/08/26 08:27:29;;;;;;;9.63;2.50;;;17.50;99.90;;;;;;5077892;28;20541;-73
2021/08/26 08:29:56;;;;;;;3.83;1.80;;;17.60;99.90;;;;;;5077470;28;20451;-73
2021/08/26 08:32:23;;;;;;;5.53;1.80;;;17.70;99.90;;;;;;5076967;28;20474;-74
2021/08/26 08:34:50;;;;;;;4.60;2.30;;;17.90;99.90;;;;;;5077435;28;20459;-73
2021/08/26 08:37:18;;;;;;;6.67;2.40;;;18.00;99.90;;;;;;5078390;28;20474;-73
2021/08/26 08:39:44;;;;;;;5.30;2.10;;;18.20;99.90;;;;;;5077953;28;20469;-74
2021/08/26 08:42:11;;;;;;;4.37;2.30;;;18.40;99.90;;;;;;5075708;28;20482;-73
2021/08/26 08:44:38;;;;;;;3.37;2.23;;;18.50;99.90;;;;;;5078892;28;20480;-73
2021/08/26 08:47:06;;;;;;;3.60;2.07;;;18.40;99.90;;;;;;5077080;28;20466;-73
2021/08/26 08:49:36;;;;;;;4.57;1.90;;;18.30;99.90;;;;;;5077615;28;20566;-73
2021/08/26 08:52:03;;;;;;;3.03;1.97;;;18.10;99.90;;;;;;5078614;28;20508;-73
2021/08/26 08:54:31;;;;;;;4.63;1.90;;;17.90;99.90;;;;;;5076975;28;20454;-73
2021/08/26 08:56:58;;;;;;;7.07;2.87;;;17.60;99.90;;;;;;5077998;28;20484;-73
2021/08/26 08:59:28;;;;;;;4.23;2.60;;;17.40;99.90;;;;;;5077361;28;20465;-72
2021/08/26 09:01:56;;;;;;;6.03;2.03;;;17.10;99.90;;;;;;5078441;28;20560;-72
2021/08/26 09:04:24;;;;;;;3.27;1.83;;;17.00;99.90;;;;;;5080638;28;20736;-73
2021/08/26 09:06:51;;;;;;;4.73;3.17;;;16.90;99.90;;;;;;5079811;28;20465;-72
2021/08/26 09:09:20;;;;;;;6.60;2.40;;;16.80;99.90;;;;;;5080811;28;20454;-73
2021/08/26 09:11:52;;;;;;;2.83;2.13;;;16.80;99.90;;;;;;5081764;28;20468;-72
2021/08/26 09:14:20;;;;;;;6.10;2.40;;;16.90;99.90;;;;;;5080473;28;20453;-73
2021/08/26 09:16:49;;;;;;;5.50;2.17;;;17.10;99.90;;;;;;5078631;28;20482;-72
2021/08/26 09:19:17;;;;;;;5.30;1.70;;;17.30;99.90;;;;;;5078793;28;20897;-74
2021/08/26 09:21:44;;;;;;;5.63;1.90;;;17.60;99.90;;;;;;5077556;28;20465;-76
2021/08/26 09:24:11;;;;;;;4.90;2.17;;;17.80;99.90;;;;;;5076995;28;20458;-74
2021/08/26 09:26:38;;;;;;;4.80;2.13;;;18.00;99.90;;;;;;5076634;28;20528;-73
2021/08/26 09:29:08;;;;;;;4.63;1.60;;;18.20;99.90;;;;;;5074165;28;20549;-73
2021/08/26 09:31:37;;;;;;;2.67;1.30;;;18.20;99.90;;;;;;5073508;28;20458;-72
2021/08/26 09:34:11;;;;;;;3.53;1.40;;;18.20;99.90;;;;;;5073972;28;20738;-72
2021/08/26 09:36:53;;;;;;;2.00;1.60;;;18.10;99.90;;;;;;5073836;28;20449;-72
2021/08/26 09:39:21;;;;;;;3.23;2.10;;;18.10;99.90;;;;;;5073703;28;20928;-72
2021/08/26 09:41:49;;;;;;;5.87;2.97;;;18.00;99.90;;;;;;5073361;28;20466;-72
2021/08/26 09:44:19;;;;;;;3.80;1.90;;;18.00;99.90;;;;;;5073892;28;20454;-71
2021/08/26 09:46:48;;;;;;;8.70;2.30;;;17.90;99.90;;;;;;5073690;28;20461;-71
2021/08/26 09:49:17;;;;;;;3.10;1.47;;;17.90;99.90;;;;;;5073727;28;20454;-72
2021/08/26 09:51:46;;;;;;;2.50;1.47;;;17.90;99.90;;;;;;5073836;28;20786;-72
2021/08/26 09:54:33;;;;;;;5.23;1.17;;;17.90;99.90;;;;;;5073813;28;20466;-71
2021/08/26 09:57:01;;;;;;;1.40;1.00;;;17.90;99.90;;;;;;5073390;28;20470;-72
2021/08/26 09:59:46;;;;;;;2.93;1.07;;;17.90;99.90;;;;;;5073691;28;20454;-72
2021/08/26 10:02:18;;;;;;;2.20;1.30;;;17.80;99.90;;;;;;5073530;28;20450;-73
2021/08/26 10:04:46;;;;;;;2.37;1.17;;;17.80;99.90;;;;;;5073107;28;20454;-73
2021/08/26 10:07:13;;;;;;;2.00;1.13;;;17.80;99.90;;;;;;5073066;28;20469;-73
2021/08/26 10:09:41;;;;;;;4.50;0.93;;;17.90;99.90;;;;;;5073198;28;20848;-73
2021/08/26 10:12:11;;;;;;;3.10;1.00;;;18.00;99.90;;;;;;5073356;28;20933;-72
2021/08/26 10:14:38;;;;;;;3.27;0.90;;;18.10;99.90;;;;;;5073320;28;20914;-72
2021/08/26 10:17:06;;;;;;;4.90;1.10;;;18.30;99.90;;;;;;5073860;28;20477;-72
2021/08/26 10:19:34;;;;;;;5.00;0.90;;;18.40;99.90;;;;;;5076985;28;20454;-71
2021/08/26 10:22:01;;;;;;;1.43;1.07;;;18.50;99.90;;;;;;5076771;28;20454;-72
2021/08/26 10:24:28;;;;;;;2.57;1.00;;;18.60;99.90;;;;;;5077244;28;20485;-72
2021/08/26 10:26:58;;;;;;;1.43;0.93;;;18.60;99.90;;;;;;5077067;28;20458;-73
2021/08/26 10:29:26;;;;;;;2.43;1.10;;;18.50;99.90;;;;;;5078054;28;20469;-72
2021/08/26 10:31:56;;;;;;;1.37;0.83;;;18.40;99.90;;;;;;5076677;28;20454;-72
2021/08/26 10:34:27;;;;;;;6.70;1.00;;;18.40;99.90;;;;;;5078170;28;20442;-73
2021/08/26 10:37:21;;;;;;;4.30;0.80;;;18.40;99.90;;;;;;5076376;28;20438;-73
2021/08/26 10:39:50;;;;;;;6.00;0.80;;;18.40;99.90;;;;;;5076770;28;20882;-73
2021/08/26 10:42:44;;;;;;;1.07;0.63;;;18.40;99.90;;;;;;5076974;28;20482;-73
2021/08/26 10:45:22;;;;;;;1.87;1.07;;;18.30;99.90;;;;;;5077032;28;20458;-73
2021/08/26 10:48:07;;;;;;;0.93;0.60;;;18.20;99.90;;;;;;5076997;28;20596;-72
2021/08/26 10:50:40;;;;;;;1.93;0.80;;;18.20;99.90;;;;;;5076198;28;20458;-72
2021/08/26 10:53:11;;;;;;;1.90;0.90;;;18.40;99.90;;;;;;5076657;28;20747;-72
2021/08/26 10:55:40;;;;;;;1.77;0.73;;;18.60;99.90;;;;;;5076642;28;20544;-73
2021/08/26 10:58:38;;;;;;;2.13;0.80;;;18.70;99.90;;;;;;5076192;28;20474;-72
2021/08/26 11:01:08;;;;;;;1.00;0.60;;;18.70;99.90;;;;;;5076242;28;20828;-73
2021/08/26 11:03:52;;;;;;;1.20;0.60;;;18.90;99.90;;;;;;5075969;28;20454;-72
2021/08/26 11:06:40;;;;;;;1.37;0.60;;;19.00;99.90;;;;;;5078136;28;20458;-71
2021/08/26 11:09:28;;;;;;;3.37;0.70;;;19.20;99.90;;;;;;5076284;28;20513;-72
2021/08/26 11:12:03;;;;;;;1.40;0.60;;;19.50;99.90;;;;;;5075929;28;20484;-72
2021/08/26 11:14:30;;;;;;;1.10;0.73;;;19.40;99.90;;;;;;5076142;28;20434;-73
2021/08/26 11:17:02;;;;;;;1.10;0.60;;;19.40;99.90;;;;;;5076384;28;20561;-73
2021/08/26 11:19:31;;;;;;;1.07;0.63;;;19.40;99.90;;;;;;5075818;28;20438;-73
2021/08/26 11:22:01;;;;;;;1.00;0.60;;;19.30;99.90;;;;;;5076728;28;20462;-74
2021/08/26 11:25:00;;;;;;;1.00;0.67;;;19.40;99.90;;;;;;5076306;28;20442;-74
2021/08/26 11:27:32;;;;;;;1.10;0.83;;;19.50;99.90;;;;;;5075925;28;20439;-73
2021/08/26 11:29:59;;;;;;;1.67;0.97;;;19.80;99.90;;;;;;5074911;28;20450;-73
2021/08/26 11:32:26;;;;;;;1.40;0.63;;;20.40;99.90;;;;;;5075879;28;20890;-73
2021/08/26 11:34:56;;;;;;;2.20;0.60;;;20.80;99.90;;;;;;5075882;28;20805;-73
2021/08/26 11:37:27;;;;;;;2.83;0.70;;;21.30;99.90;;;;;;5075749;28;20992;-73
2021/08/26 11:39:56;;;;;;;1.17;0.60;;;21.50;99.90;;;;;;5075813;28;20804;-74
2021/08/26 11:42:31;;;;;;;1.10;0.50;;;21.40;99.90;;;;;;5075269;28;20486;-72
2021/08/26 11:45:19;;;;;;;1.20;0.70;;;20.90;99.90;;;;;;5075930;28;20442;-73
2021/08/26 11:47:47;;;;;;;0.90;0.50;;;20.40;99.90;;;;;;5076146;28;20466;-75
2021/08/26 11:50:25;;;;;;;3.13;0.60;;;20.00;99.90;;;;;;5076167;28;20459;-75
2021/08/26 11:52:54;;;;;;;1.30;0.67;;;19.60;99.90;;;;;;5076128;28;20442;-75
2021/08/26 11:55:22;;;;;;;0.93;0.60;;;19.30;99.90;;;;;;5076217;28;20454;-75
2021/08/26 11:57:55;;;;;;;1.87;0.80;;;19.20;99.90;;;;;;5075528;28;20918;-76
2021/08/26 12:00:22;;;;;;;2.30;0.60;;;18.90;99.90;;;;;;5076024;28;20453;-75
2021/08/26 12:02:53;;;;;;;1.37;0.60;;;18.70;99.90;;;;;;5075795;28;20737;-76
2021/08/26 12:05:20;;;;;;;1.10;0.60;;;18.70;99.90;;;;;;5075856;28;20492;-75
2021/08/26 12:07:49;;;;;;;1.30;0.77;;;18.70;99.90;;;;;;5075806;28;20454;-74
2021/08/26 12:10:20;;;;;;;1.10;0.70;;;18.70;99.90;;;;;;5075395;28;20469;-77
2021/08/26 12:12:59;;;;;;;2.03;0.60;;;18.70;99.90;;;;;;5074986;28;20887;-75
2021/08/26 12:15:29;;;;;;;1.10;0.60;;;18.70;99.90;;;;;;5074768;28;20446;-75
2021/08/26 12:17:59;;;;;;;3.33;0.70;;;18.60;99.90;;;;;;5074723;28;20559;-75
2021/08/26 12:20:27;;;;;;;2.33;0.70;;;18.50;99.90;;;;;;5075014;28;20454;-74
2021/08/26 12:22:53;;;;;;;1.17;0.60;;;18.40;99.90;;;;;;5074619;28;20879;-74
2021/08/26 12:25:24;;;;;;;3.27;0.63;;;18.40;99.90;;;;;;5074456;28;20930;-74
2021/08/26 12:28:04;;;;;;;2.20;0.60;;;18.40;99.90;;;;;;5075475;28;20445;-74
2021/08/26 12:30:37;;;;;;;2.37;0.70;;;18.30;99.90;;;;;;5074246;28;20458;-74
2021/08/26 12:33:12;;;;;;;3.93;1.13;;;18.30;99.90;;;;;;5074728;28;20450;-74
2021/08/26 12:35:53;;;;;;;1.87;0.80;;;18.30;99.90;;;;;;5074774;28;20496;-75
2021/08/26 12:38:35;;;;;;;1.80;0.77;;;18.40;99.90;;;;;;5074623;28;20477;-74
2021/08/26 12:41:05;;;;;;;3.53;0.90;;;18.50;99.90;;;;;;5074019;28;20438;-74
2021/08/26 12:43:44;;;;;;;6.40;1.20;;;18.70;99.90;;;;;;5074412;28;20482;-74
2021/08/26 12:46:13;;;;;;;8.67;0.90;;;18.80;99.90;;;;;;5074344;28;20466;-74
2021/08/26 12:48:42;;;;;;;6.43;0.87;;;19.10;99.90;;;;;;5074316;28;20450;-74
2021/08/26 12:51:14;;;;;;;1.77;0.70;;;19.90;99.90;;;;;;5074679;28;20458;-74
2021/08/26 12:53:43;;;;;;;3.47;0.87;;;21.00;99.90;;;;;;5074770;28;20446;-74